createdAt,value
2024-02-28T00:07:32.377Z,9.08
2024-02-28T00:17:38.138Z,9.05
2024-02-28T00:27:44.243Z,9.03
2024-02-28T00:37:50.149Z,8.94
2024-02-28T00:47:56.574Z,8.87
2024-02-28T00:58:02.685Z,8.82
2024-02-28T01:08:09.860Z,8.78
2024-02-28T01:18:15.931Z,8.72
2024-02-28T01:28:24.314Z,8.67
2024-02-28T01:38:30.438Z,8.64
2024-02-28T01:48:36.538Z,8.63
2024-02-28T01:58:43.196Z,8.61
2024-02-28T02:08:50.017Z,8.60
2024-02-28T02:18:58.292Z,8.60
2024-02-28T02:29:04.570Z,8.62
2024-02-28T02:39:10.855Z,8.60
2024-02-28T02:49:16.910Z,8.44
2024-02-28T02:59:23.356Z,8.22
2024-02-28T03:09:29.556Z,7.99
2024-02-28T03:19:36.754Z,7.89
2024-02-28T03:29:42.770Z,7.78
2024-02-28T03:39:50.945Z,7.68
2024-02-28T03:49:58.686Z,7.57
2024-02-28T04:00:07.316Z,7.46
2024-02-28T04:10:15.895Z,7.41
2024-02-28T04:20:22.125Z,7.38
2024-02-28T04:30:27.937Z,7.37
2024-02-28T04:40:34.150Z,7.35
2024-02-28T04:50:40.071Z,7.33
2024-02-28T05:00:46.100Z,7.37
2024-02-28T05:10:53.308Z,7.40
2024-02-28T05:21:00.071Z,7.43
2024-02-28T05:31:21.318Z,7.43
2024-02-28T05:41:29.707Z,7.49
2024-02-28T05:51:35.939Z,7.57
2024-02-28T06:01:42.401Z,7.67
2024-02-28T06:11:50.393Z,7.75
2024-02-28T06:21:56.307Z,7.80
2024-02-28T06:32:02.298Z,7.80
2024-02-28T06:42:09.719Z,7.81
2024-02-28T06:52:14.296Z,7.84
2024-02-28T07:02:20.242Z,7.88
2024-02-28T07:12:26.677Z,7.98
2024-02-28T07:22:33.330Z,7.96
2024-02-28T07:32:39.372Z,7.95
2024-02-28T07:42:45.634Z,7.95
2024-02-28T07:52:51.597Z,8.03
2024-02-28T08:02:57.893Z,8.09
2024-02-28T08:13:04.075Z,7.98
2024-02-28T08:23:10.559Z,7.99
2024-02-28T08:33:18.424Z,8.07
2024-02-28T08:43:25.016Z,8.22
2024-02-28T08:53:31.171Z,8.35
2024-02-28T09:03:37.263Z,8.38
2024-02-28T09:13:43.349Z,8.59
2024-02-28T09:23:49.436Z,8.64
2024-02-28T09:33:55.556Z,8.62
2024-02-28T09:44:02.416Z,8.59
2024-02-28T09:54:08.854Z,8.76
2024-02-28T10:04:16.173Z,8.93
2024-02-28T10:14:22.553Z,9.00
2024-02-28T10:24:29.444Z,8.98
2024-02-28T10:34:36.577Z,9.00
2024-02-28T10:44:45.871Z,9.00
2024-02-28T10:54:56.599Z,9.05
2024-02-28T11:05:03.287Z,9.15
2024-02-28T11:15:19.649Z,9.11
2024-02-28T11:25:25.900Z,9.08
2024-02-28T11:35:32.654Z,9.10
2024-02-28T11:45:44.851Z,9.03
2024-02-28T11:55:50.908Z,9.03
2024-02-28T12:05:57.546Z,8.90
2024-02-28T12:16:04.841Z,8.86
2024-02-28T12:26:10.950Z,8.75
2024-02-28T12:36:17.002Z,8.61
2024-02-28T12:46:23.326Z,8.65
2024-02-28T12:56:29.350Z,8.58
2024-02-28T13:06:35.466Z,8.51
2024-02-28T13:16:41.324Z,8.60
2024-02-28T13:26:47.781Z,8.65
2024-02-28T13:36:53.806Z,8.54
2024-02-28T13:46:59.949Z,8.53
2024-02-28T13:57:09.156Z,8.48
2024-02-28T14:07:17.722Z,8.42
2024-02-28T14:17:24.145Z,8.45
2024-02-28T14:27:34.301Z,8.49
2024-02-28T14:37:41.074Z,8.52
2024-02-28T14:47:47.460Z,8.50
2024-02-28T14:57:53.838Z,8.40
2024-02-28T15:07:59.992Z,8.24
2024-02-28T15:18:06.232Z,8.09
2024-02-28T15:28:14.500Z,8.02
2024-02-28T15:38:20.610Z,7.91
2024-02-28T15:48:26.649Z,7.82
2024-02-28T15:58:32.572Z,7.76
2024-02-28T16:08:43.461Z,7.71
2024-02-28T16:18:51.713Z,7.66
2024-02-28T16:28:58.622Z,7.53
2024-02-28T16:39:04.817Z,7.40
2024-02-28T16:49:10.797Z,7.32
2024-02-28T16:59:16.889Z,7.29
2024-02-28T17:09:22.908Z,7.27
2024-02-28T17:19:29.180Z,7.25
2024-02-28T17:29:37.227Z,7.24
2024-02-28T17:39:43.261Z,7.17
2024-02-28T17:49:49.331Z,7.10
2024-02-28T17:59:55.467Z,7.02
2024-02-28T18:10:01.483Z,7.00
2024-02-28T18:20:11.555Z,6.97
2024-02-28T18:30:24.532Z,6.91
2024-02-28T18:40:30.658Z,6.85
2024-02-28T18:50:36.722Z,6.80
2024-02-28T19:00:47.823Z,6.78
2024-02-28T19:10:54.728Z,6.78
2024-02-28T19:21:00.532Z,6.77
2024-02-28T19:41:15.280Z,6.77
2024-02-28T19:51:21.585Z,6.79
2024-02-28T20:01:27.946Z,6.80
2024-02-28T20:11:34.258Z,6.78
2024-02-28T20:21:40.441Z,6.78
2024-02-28T20:31:46.471Z,6.78
2024-02-28T20:41:52.678Z,6.75
2024-02-28T20:52:01.108Z,6.74
2024-02-28T21:02:07.648Z,6.72
2024-02-28T21:12:15.070Z,6.71
2024-02-28T21:22:20.989Z,6.72
2024-02-28T21:32:27.156Z,6.72
2024-02-28T21:42:33.262Z,6.76
2024-02-28T21:52:39.416Z,6.79
2024-02-28T22:02:45.207Z,6.76
2024-02-28T22:12:51.859Z,6.69
2024-02-28T22:22:57.900Z,6.66
2024-02-28T22:33:04.945Z,6.64
2024-02-28T22:43:11.664Z,6.64
2024-02-28T22:53:18.313Z,6.58
2024-02-28T23:03:24.525Z,6.55
2024-02-28T23:13:30.760Z,6.55
2024-02-28T23:23:37.263Z,6.47
2024-02-28T23:33:43.393Z,6.42
2024-02-28T23:43:52.833Z,6.42
2024-02-28T23:54:00.276Z,6.40
